Tilden, Wisconsin
Current Conditions -  °F | °C
As of 1:56 AM on Saturday 25 Oct 2014 (Local Time) from KEAU Reporting Station
Haze Haze  
Wind Chill: 50°   Ceiling: Unl
Heat Index: 50°   Visibility: 5mi
Dew Point: 49°   Wind: 3mph
Humidity: 96%   Direction: 260°W
Pressure: 29.88"   Gusts: NA
Location:  44.9743°N, 91.4379°W
Report Text: KEAU 250656Z 26003KT 5SM BR CLR 10/09 A2988 RMK AO2 SLP118 T01000094
Loading
Personal Weather Stations






























Interactive Weather Map
Tropical Storm Tracking
New forecast layout! Learn more

10-Day Weather Forecast

Advertisements
Track Severe Weather on mobile